EGBJ/GLO METAR and TAF weather

Enter ICAO airport designator
Station Type Date Time Source
EGBJ METAR 2021/08/01 16:50 UTC NOAA

EGBJ 011650Z 00000KT 9999 FEW034 FEW037TCU 20/11 Q1012


Station Type Date Time Source
EGBJ Decoded METAR 2021/08/01 16:50 UTC NOAA

Staverton Private , United Kingdom (EGBJ) 51-54N 002-10W
Aug 01, 2021 - 12:50 PM EDT / 2021.08.01 1650 UTC
Wind: Calm:0
Visibility: greater than 7 mile(s):0
Sky conditions: mostly clear
Weather: Towering cumulus clouds observed
Temperature: 68 F (20 C)
Dew Point: 51 F (11 C)
Relative Humidity: 56%
Pressure (altimeter): 29.88 in. Hg (1012 hPa)
ob: EGBJ 011650Z 00000KT 9999 FEW034 FEW037TCU 20/11 Q1012
cycle: 17

Station Type Date Time Source
EGBJ TAF UTC NOAA

Error!

Example: see airport list